createdAt,value
2023-02-19T00:30:14.325Z,80
2023-02-19T01:00:05.215Z,79
2023-02-19T01:30:26.916Z,78
2023-02-19T02:00:09.996Z,79
2023-02-19T02:30:01.821Z,81
2023-02-19T03:00:04.327Z,85
2023-02-19T03:30:05.356Z,85
2023-02-19T04:00:17.827Z,85
2023-02-19T04:30:19.977Z,87
2023-02-19T05:00:07.711Z,85
2023-02-19T05:30:11.583Z,87
2023-02-19T06:00:22.669Z,88
2023-02-19T06:30:05.793Z,89
2023-02-19T07:00:17.164Z,88
2023-02-19T07:30:20.979Z,86
2023-02-19T08:00:11.585Z,85
2023-02-19T08:30:24.959Z,85
2023-02-19T09:00:06.506Z,87
2023-02-19T09:30:05.787Z,86
2023-02-19T10:00:17.235Z,86
2023-02-19T10:30:08.465Z,85
2023-02-19T11:00:02.167Z,83
2023-02-19T11:30:23.100Z,85
2023-02-19T12:00:14.446Z,85
2023-02-19T12:30:18.449Z,86
2023-02-19T13:00:09.034Z,85
2023-02-19T13:30:12.113Z,84
2023-02-19T13:59:59.975Z,80
2023-02-19T14:30:03.134Z,80
2023-02-19T15:00:18.544Z,81
2023-02-19T15:30:19.199Z,78
2023-02-19T16:00:11.337Z,79
2023-02-19T16:30:14.992Z,80
2023-02-19T17:00:04.956Z,80
2023-02-19T17:30:19.092Z,79
2023-02-19T18:00:30.028Z,79
2023-02-19T18:30:01.948Z,77
2023-02-19T19:00:00.853Z,79
2023-02-19T19:30:21.698Z,80
2023-02-19T20:00:25.936Z,80
2023-02-19T20:30:16.949Z,83
2023-02-19T21:00:08.418Z,83
2023-02-19T21:30:11.757Z,82
2023-02-19T22:00:02.374Z,82
2023-02-19T22:30:06.617Z,80
2023-02-19T23:00:27.341Z,80
